KBJC/BJC METAR and TAF weather

Enter ICAO airport designator
Station Type Date Time Source
KBJC METAR 2020/07/14 21:45 UTC NOAA

KBJC 142145Z 01005KT 10SM BKN150 24/12 A3013 RMK LTGCG TSB46 W MOV E


Station Type Date Time Source
KBJC Decoded METAR 2020/07/14 21:45 UTC NOAA

Broomfield / Jeffco, CO, United States (KBJC) 39-55N 105-07W
Jul 14, 2020 - 05:45 PM EDT / 2020.07.14 2145 UTC
Wind: from the N (010 degrees) at 6 MPH (5 KT):0
Visibility: 10 mile(s):0
Sky conditions: mostly cloudy
Weather: Lightning observed
Temperature: 75 F (24 C)
Dew Point: 53 F (12 C)
Relative Humidity: 46%
Pressure (altimeter): 30.13 in. Hg (1020 hPa)
ob: KBJC 142145Z 01005KT 10SM BKN150 24/12 A3013 RMK LTGCG TSB46 W MOV E
cycle: 22

Station Type Date Time Source
KBJC TAF 2020/07/14 18:28 UTC NOAA

TAF KBJC 141725Z 1418/1518 07009KT P6SM FEW030 SCT060
FM142000 04010KT P6SM BKN060 BKN090
TEMPO 1421/1501 VRB20G35KT -TSRA BKN060CB
FM150400 14009KT P6SM FEW090 BKN140
FM150600 30007KT P6SM BKN050 BKN110
FM151000 34006KT P6SM BKN015
FM151600 05008KT P6SM SCT025

Example: see airport list